createdAt,value
2022-09-12T00:00:59.155Z,18.80
2022-09-12T00:01:59.114Z,17.80
2022-09-12T00:02:59.070Z,18.00
2022-09-12T00:03:59.063Z,18.80
2022-09-12T00:04:59.030Z,21.00
2022-09-12T00:05:59.018Z,18.70
2022-09-12T00:06:59.020Z,18.60
2022-09-12T00:07:58.989Z,18.40
2022-09-12T00:08:58.979Z,20.00
2022-09-12T00:09:58.960Z,23.90
2022-09-12T00:10:58.960Z,18.40
2022-09-12T00:11:58.941Z,21.70
2022-09-12T00:12:58.931Z,18.30
2022-09-12T00:13:59.299Z,20.30
2022-09-12T00:14:58.912Z,21.30
2022-09-12T00:15:58.882Z,22.10
2022-09-12T00:16:58.882Z,18.60
2022-09-12T00:17:58.853Z,20.00
2022-09-12T00:18:59.316Z,20.40
2022-09-12T00:19:58.834Z,21.00
2022-09-12T00:20:58.823Z,19.80
2022-09-12T00:21:58.814Z,21.20
2022-09-12T00:22:58.794Z,21.80
2022-09-12T00:23:58.784Z,20.50
2022-09-12T00:24:58.765Z,19.60
2022-09-12T00:25:58.754Z,23.70
2022-09-12T00:26:58.755Z,21.60
2022-09-12T00:27:58.734Z,21.60
2022-09-12T00:28:58.715Z,22.00
2022-09-12T00:29:58.696Z,19.80
2022-09-12T00:30:58.687Z,17.70
2022-09-12T00:31:58.726Z,19.00
2022-09-12T00:32:58.666Z,26.20
2022-09-12T00:33:58.647Z,19.20
2022-09-12T00:34:58.641Z,20.30
2022-09-12T00:35:58.619Z,20.40
2022-09-12T00:36:58.619Z,19.20
2022-09-12T00:37:58.597Z,17.70
2022-09-12T00:38:58.579Z,20.80
2022-09-12T00:39:58.625Z,18.30
2022-09-12T00:40:58.560Z,19.80
2022-09-12T00:41:58.555Z,20.90
2022-09-12T00:42:58.531Z,18.60
2022-09-12T00:43:58.527Z,18.20
2022-09-12T00:44:58.505Z,19.70
2022-09-12T00:45:58.519Z,18.70
2022-09-12T00:46:58.489Z,17.90
2022-09-12T00:47:58.461Z,27.50
2022-09-12T00:48:58.460Z,19.80
2022-09-12T00:49:58.434Z,19.30
2022-09-12T00:50:58.432Z,18.10
2022-09-12T00:51:58.404Z,20.80
2022-09-12T00:52:58.404Z,20.70
2022-09-12T00:53:58.384Z,18.70
2022-09-12T00:54:58.376Z,18.00
2022-09-12T00:55:58.362Z,19.50
2022-09-12T00:56:58.344Z,21.40
2022-09-12T00:57:58.324Z,19.30
2022-09-12T00:58:58.320Z,21.20
2022-09-12T00:59:58.295Z,18.90
2022-09-12T01:00:58.399Z,20.30
2022-09-12T01:01:58.400Z,17.90
2022-09-12T01:02:58.270Z,19.20
2022-09-12T01:03:58.246Z,25.80
2022-09-12T01:04:58.247Z,24.20
2022-09-12T01:05:58.239Z,21.00
2022-09-12T01:06:58.222Z,21.70
2022-09-12T01:07:58.198Z,21.80
2022-09-12T01:08:58.197Z,20.30
2022-09-12T01:09:58.168Z,20.60
2022-09-12T01:10:58.169Z,21.20
2022-09-12T01:11:58.151Z,21.30
2022-09-12T01:12:58.131Z,28.70
2022-09-12T01:13:58.120Z,20.60
2022-09-12T01:14:58.120Z,22.50
2022-09-12T01:15:58.090Z,20.80
2022-09-12T01:16:58.080Z,18.70
2022-09-12T01:17:58.061Z,19.90
2022-09-12T01:18:58.060Z,18.60
2022-09-12T01:19:58.051Z,19.90
2022-09-12T01:20:58.034Z,21.50
2022-09-12T01:21:58.012Z,20.20
2022-09-12T01:22:58.008Z,18.40
2022-09-12T01:23:57.994Z,19.00
2022-09-12T01:24:57.993Z,20.60
2022-09-12T01:25:57.953Z,19.70
2022-09-12T01:26:57.953Z,19.70
2022-09-12T01:27:57.934Z,19.50
2022-09-12T01:28:57.932Z,21.80
2022-09-12T01:29:57.909Z,19.40
2022-09-12T01:30:57.896Z,18.70
2022-09-12T01:31:57.927Z,21.20
2022-09-12T01:32:57.865Z,21.30
2022-09-12T01:33:57.857Z,18.70
2022-09-12T01:36:10.881Z,20.20
2022-09-12T01:37:07.028Z,20.40
2022-09-12T01:38:07.019Z,21.00
2022-09-12T01:39:07.004Z,19.40
2022-09-12T01:40:07.012Z,22.90
2022-09-12T01:41:06.978Z,20.60
2022-09-12T01:42:06.961Z,23.00
2022-09-12T01:43:06.955Z,21.40
2022-09-12T01:44:06.942Z,20.30
2022-09-12T01:45:06.934Z,21.90
2022-09-12T01:46:06.951Z,20.80
2022-09-12T01:47:06.892Z,19.70
2022-09-12T01:48:06.882Z,19.60
2022-09-12T01:49:07.812Z,20.70
2022-09-12T01:50:06.865Z,19.60
2022-09-12T01:51:06.842Z,22.20
2022-09-12T01:52:06.833Z,21.00
2022-09-12T01:53:06.814Z,21.70
2022-09-12T01:54:06.806Z,21.60
2022-09-12T01:55:09.695Z,22.20
2022-09-12T01:56:06.775Z,24.40
2022-09-12T01:57:06.764Z,23.20
2022-09-12T01:58:06.755Z,23.70
2022-09-12T01:59:06.735Z,24.20
2022-09-12T02:00:06.737Z,22.60
2022-09-12T02:01:06.757Z,23.40
2022-09-12T02:02:06.730Z,32.00
2022-09-12T02:03:06.689Z,25.40
2022-09-12T02:04:06.673Z,25.10
2022-09-12T02:05:06.667Z,24.60
2022-09-12T02:06:06.647Z,23.30
2022-09-12T02:07:06.647Z,24.50
2022-09-12T02:08:06.629Z,24.60
2022-09-12T02:09:06.608Z,26.30
2022-09-12T02:10:06.606Z,24.90
2022-09-12T02:11:06.600Z,23.00
2022-09-12T02:12:06.569Z,25.90
2022-09-12T02:13:06.549Z,27.10
2022-09-12T02:14:06.551Z,27.00
2022-09-12T02:15:06.541Z,25.80
2022-09-12T02:16:06.524Z,21.70
2022-09-12T02:17:06.500Z,26.50
2022-09-12T02:18:06.490Z,23.80
2022-09-12T02:19:07.425Z,26.30
2022-09-12T02:20:06.472Z,27.60
2022-09-12T02:21:06.454Z,25.10
2022-09-12T02:22:06.441Z,25.30
2022-09-12T02:23:06.422Z,25.60
2022-09-12T02:24:06.413Z,25.80
2022-09-12T02:25:06.407Z,24.30
2022-09-12T02:26:06.384Z,26.30
2022-09-12T02:27:06.373Z,24.60
2022-09-12T02:28:06.363Z,21.70
2022-09-12T02:29:06.344Z,22.60
2022-09-12T02:30:06.346Z,24.30
2022-09-12T02:31:06.362Z,21.90
2022-09-12T02:32:06.304Z,25.70
2022-09-12T02:33:06.295Z,23.80
2022-09-12T02:34:07.230Z,24.00
2022-09-12T02:35:06.296Z,23.70
2022-09-12T02:36:06.266Z,21.60
2022-09-12T02:37:06.237Z,23.60
2022-09-12T02:38:06.241Z,24.00
2022-09-12T02:39:06.206Z,24.70
2022-09-12T02:40:06.268Z,27.10
2022-09-12T02:41:06.185Z,24.70
2022-09-12T02:42:07.127Z,27.30
2022-09-12T02:43:06.159Z,29.70
2022-09-12T02:44:06.148Z,26.30
2022-09-12T02:45:06.134Z,27.50
2022-09-12T02:46:06.164Z,24.00
2022-09-12T02:47:06.110Z,37.60
2022-09-12T02:48:06.089Z,27.60
2022-09-12T02:49:09.302Z,27.40
2022-09-12T02:50:06.080Z,24.70
2022-09-12T02:51:06.051Z,26.50
2022-09-12T02:52:06.040Z,27.10
2022-09-12T02:53:06.033Z,26.40
2022-09-12T02:54:06.979Z,25.70
2022-09-12T02:55:06.002Z,27.90
2022-09-12T02:56:05.989Z,26.70
2022-09-12T02:57:05.982Z,24.80
2022-09-12T02:58:06.910Z,28.80
2022-09-12T02:59:05.964Z,26.90
2022-09-12T03:00:05.934Z,26.40
2022-09-12T03:01:05.996Z,25.60
2022-09-12T03:02:06.947Z,32.60
2022-09-12T03:03:05.901Z,25.20
2022-09-12T03:04:05.898Z,28.00
2022-09-12T03:05:05.864Z,28.40
2022-09-12T03:06:05.856Z,26.40
2022-09-12T03:07:05.836Z,24.10
2022-09-12T03:08:05.825Z,30.90
2022-09-12T03:09:05.815Z,38.00
2022-09-12T03:10:05.803Z,33.10
2022-09-12T03:11:05.786Z,29.30
2022-09-12T03:12:05.776Z,26.80
2022-09-12T03:13:05.767Z,26.70
2022-09-12T03:14:06.715Z,27.60
2022-09-12T03:15:05.738Z,25.10
2022-09-12T03:16:05.764Z,24.70
2022-09-12T03:17:05.710Z,25.90
2022-09-12T03:18:05.710Z,24.50
2022-09-12T03:19:05.698Z,25.70
2022-09-12T03:20:05.669Z,23.60
2022-09-12T03:21:05.679Z,25.00
2022-09-12T03:22:05.656Z,24.10
2022-09-12T03:23:05.630Z,23.30
2022-09-12T03:24:05.636Z,25.40
2022-09-12T03:25:05.643Z,24.10
2022-09-12T03:26:05.591Z,24.50
2022-09-12T03:27:05.582Z,24.60
2022-09-12T03:28:05.565Z,25.60
2022-09-12T03:29:05.563Z,23.90
2022-09-12T03:30:05.529Z,26.10
2022-09-12T03:31:05.610Z,25.70
2022-09-12T03:32:05.511Z,24.20
2022-09-12T03:33:05.499Z,22.80
2022-09-12T03:34:05.572Z,26.20
2022-09-12T03:35:05.474Z,22.10
2022-09-12T03:36:05.454Z,29.30
2022-09-12T03:37:05.444Z,27.50
2022-09-12T03:38:05.426Z,26.20
2022-09-12T03:39:05.425Z,25.60
2022-09-12T03:40:05.423Z,23.10
2022-09-12T03:41:05.397Z,25.70
2022-09-12T03:42:05.374Z,24.60
2022-09-12T03:43:05.365Z,25.00
2022-09-12T03:44:05.385Z,29.30
2022-09-12T03:45:05.337Z,30.10
2022-09-12T03:46:05.354Z,24.20
2022-09-12T03:47:09.256Z,23.50
2022-09-12T03:48:06.306Z,25.00
2022-09-12T03:49:05.294Z,25.60
2022-09-12T03:50:05.269Z,24.90
2022-09-12T03:51:05.257Z,29.40
2022-09-12T03:52:05.238Z,24.20
2022-09-12T03:53:05.232Z,24.40
2022-09-12T03:54:05.228Z,28.30
2022-09-12T03:55:05.209Z,26.70
2022-09-12T03:56:05.189Z,26.50
2022-09-12T03:57:05.180Z,24.90
2022-09-12T03:58:05.160Z,28.50
2022-09-12T03:59:05.971Z,25.40
2022-09-12T04:00:05.140Z,24.90
2022-09-12T04:01:05.188Z,26.00
2022-09-12T04:02:05.144Z,26.00
2022-09-12T04:03:05.102Z,25.80
2022-09-12T04:04:05.092Z,26.50
2022-09-12T04:05:05.072Z,28.40
2022-09-12T04:06:05.052Z,26.30
2022-09-12T04:07:05.052Z,26.50
2022-09-12T04:08:05.034Z,27.10
2022-09-12T04:09:05.023Z,28.10
2022-09-12T04:10:05.003Z,25.80
2022-09-12T04:11:04.996Z,34.10
2022-09-12T04:12:04.974Z,31.20
2022-09-12T04:13:04.974Z,28.30
2022-09-12T04:14:04.947Z,29.80
2022-09-12T04:15:04.946Z,36.00
2022-09-12T04:16:04.926Z,33.30
2022-09-12T04:17:04.915Z,28.30
2022-09-12T04:18:06.092Z,28.40
2022-09-12T04:19:04.886Z,28.90
2022-09-12T04:20:04.866Z,32.50
2022-09-12T04:21:04.865Z,28.90
2022-09-12T04:22:04.847Z,42.00
2022-09-12T04:23:04.848Z,28.50
2022-09-12T04:24:04.818Z,28.80
2022-09-12T04:25:04.807Z,28.20
2022-09-12T04:26:04.788Z,35.90
2022-09-12T04:27:07.739Z,33.40
2022-09-12T04:28:04.768Z,31.80
2022-09-12T04:29:04.774Z,29.90
2022-09-12T04:30:04.746Z,38.90
2022-09-12T04:31:04.779Z,28.30
2022-09-12T04:32:04.710Z,29.60
2022-09-12T04:33:08.011Z,37.90
2022-09-12T04:34:04.681Z,29.80
2022-09-12T04:35:04.678Z,33.40
2022-09-12T04:36:04.661Z,32.00
2022-09-12T04:37:04.649Z,29.50
2022-09-12T04:38:04.644Z,29.20
2022-09-12T04:39:04.625Z,44.00
2022-09-12T04:40:04.691Z,43.80
2022-09-12T04:41:04.602Z,29.10
2022-09-12T04:42:04.588Z,27.20
2022-09-12T04:43:04.583Z,27.70
2022-09-12T04:44:04.555Z,32.80
2022-09-12T04:45:04.543Z,40.10
2022-09-12T04:46:04.658Z,31.30
2022-09-12T04:47:04.526Z,31.90
2022-09-12T04:48:04.519Z,30.20
2022-09-12T04:49:04.495Z,27.90
2022-09-12T04:50:04.491Z,28.70
2022-09-12T04:51:04.469Z,27.80
2022-09-12T04:52:04.446Z,27.30
2022-09-12T04:53:04.447Z,30.40
2022-09-12T04:54:04.426Z,33.00
2022-09-12T04:55:04.418Z,27.30
2022-09-12T04:56:04.398Z,29.20
2022-09-12T04:57:05.339Z,35.30
2022-09-12T04:58:04.378Z,28.40
2022-09-12T04:59:04.361Z,36.80
2022-09-12T05:00:07.177Z,29.90
2022-09-12T05:01:04.340Z,29.00
2022-09-12T05:02:04.351Z,29.10
2022-09-12T05:03:04.319Z,28.50
2022-09-12T05:04:04.289Z,27.20
2022-09-12T05:05:04.280Z,27.00
2022-09-12T05:06:04.260Z,27.10
2022-09-12T05:07:04.260Z,26.80
2022-09-12T05:08:04.240Z,36.40
2022-09-12T05:09:04.230Z,30.00
2022-09-12T05:10:04.212Z,30.10
2022-09-12T05:11:04.209Z,26.90
2022-09-12T05:12:05.233Z,25.30
2022-09-12T05:13:04.182Z,26.90
2022-09-12T05:14:04.163Z,25.30
2022-09-12T05:15:04.154Z,31.10
2022-09-12T05:16:04.146Z,26.00
2022-09-12T05:17:04.181Z,25.20
2022-09-12T05:18:04.113Z,26.20
2022-09-12T05:19:04.102Z,26.90
2022-09-12T05:20:04.085Z,28.00
2022-09-12T05:21:04.073Z,24.80
2022-09-12T05:22:05.027Z,26.90
2022-09-12T05:23:04.055Z,31.20
2022-09-12T05:24:04.026Z,35.60
2022-09-12T05:25:04.016Z,29.50
2022-09-12T05:26:03.995Z,35.50
2022-09-12T05:27:03.986Z,46.80
2022-09-12T05:28:03.987Z,29.40
2022-09-12T05:29:03.968Z,27.50
2022-09-12T05:30:03.946Z,32.20
2022-09-12T05:31:03.993Z,28.80
2022-09-12T05:32:03.917Z,25.20
2022-09-12T05:33:03.918Z,25.70
2022-09-12T05:34:03.889Z,27.20
2022-09-12T05:35:03.888Z,25.90
2022-09-12T05:36:03.868Z,25.70
2022-09-12T05:37:03.859Z,26.70
2022-09-12T05:38:03.849Z,27.20
2022-09-12T05:39:03.839Z,23.50
2022-09-12T05:40:03.865Z,26.90
2022-09-12T05:41:03.799Z,24.80
2022-09-12T05:42:03.790Z,23.00
2022-09-12T05:43:03.791Z,23.40
2022-09-12T05:44:03.765Z,22.90
2022-09-12T05:45:03.752Z,25.60
2022-09-12T05:46:03.832Z,25.70
2022-09-12T05:47:03.732Z,33.90
2022-09-12T05:48:03.716Z,35.30
2022-09-12T05:49:03.701Z,30.70
2022-09-12T05:50:03.691Z,26.10
2022-09-12T05:51:03.710Z,25.20
2022-09-12T05:52:03.663Z,26.60
2022-09-12T05:53:03.644Z,32.70
2022-09-12T05:54:03.654Z,27.10
2022-09-12T05:55:03.624Z,28.80
2022-09-12T05:56:03.606Z,33.90
2022-09-12T05:57:03.606Z,27.80
2022-09-12T05:58:03.574Z,24.80
2022-09-12T05:59:03.571Z,33.00
2022-09-12T06:00:03.546Z,26.60
2022-09-12T06:01:03.584Z,32.30
2022-09-12T06:02:03.583Z,29.70
2022-09-12T06:03:03.519Z,44.10
2022-09-12T06:04:03.532Z,31.30
2022-09-12T06:05:03.490Z,43.70
2022-09-12T06:06:03.469Z,30.50
2022-09-12T06:07:03.467Z,29.20
2022-09-12T06:08:03.438Z,37.10
2022-09-12T06:09:03.433Z,43.70
2022-09-12T06:10:03.419Z,43.30
2022-09-12T06:11:03.408Z,33.10
2022-09-12T06:12:03.399Z,47.30
2022-09-12T06:13:03.381Z,30.70
2022-09-12T06:14:03.359Z,39.90
2022-09-12T06:15:03.360Z,42.00
2022-09-12T06:16:03.340Z,28.20
2022-09-12T06:17:03.409Z,33.30
2022-09-12T06:18:03.312Z,46.70
2022-09-12T06:19:03.298Z,30.40
2022-09-12T06:20:03.282Z,28.50
2022-09-12T06:21:03.271Z,39.60
2022-09-12T06:22:03.261Z,40.60
2022-09-12T06:23:03.242Z,27.70
2022-09-12T06:24:03.222Z,44.20
2022-09-12T06:25:03.220Z,27.80
2022-09-12T06:26:04.155Z,39.20
2022-09-12T06:27:03.203Z,26.70
2022-09-12T06:28:03.175Z,28.60
2022-09-12T06:29:03.173Z,37.80
2022-09-12T06:30:03.159Z,33.20
2022-09-12T06:31:03.183Z,37.20
2022-09-12T06:32:03.127Z,38.30
2022-09-12T06:33:03.116Z,40.00
2022-09-12T06:34:03.103Z,35.90
2022-09-12T06:35:03.095Z,31.00
2022-09-12T06:36:03.066Z,41.70
2022-09-12T06:37:03.067Z,30.20
2022-09-12T06:38:03.048Z,38.90
2022-09-12T06:39:03.028Z,33.90
2022-09-12T06:40:03.049Z,26.40
2022-09-12T06:41:03.005Z,43.40
2022-09-12T06:42:03.011Z,26.70
2022-09-12T06:43:02.976Z,33.00
2022-09-12T06:44:02.961Z,31.80
2022-09-12T06:45:02.949Z,27.50
2022-09-12T06:46:02.988Z,43.90
2022-09-12T06:47:02.931Z,40.40
2022-09-12T06:48:02.908Z,49.70
2022-09-12T06:49:02.891Z,40.80
2022-09-12T06:50:02.880Z,53.90
2022-09-12T06:51:02.871Z,33.00
2022-09-12T06:52:02.862Z,32.30
2022-09-12T06:53:02.843Z,31.10
2022-09-12T06:54:02.822Z,28.20
2022-09-12T06:55:02.812Z,50.60
2022-09-12T06:56:02.816Z,31.70
2022-09-12T06:57:02.823Z,43.20
2022-09-12T06:58:02.773Z,54.60
2022-09-12T06:59:02.786Z,45.50
2022-09-12T07:00:02.764Z,43.80
2022-09-12T07:01:02.784Z,69.90
2022-09-12T07:02:02.809Z,64.70
2022-09-12T07:03:02.704Z,81.20
2022-09-12T07:04:02.685Z,64.70
2022-09-12T07:05:02.684Z,59.10
2022-09-12T07:06:02.668Z,64.00
2022-09-12T07:07:02.665Z,67.60
2022-09-12T07:08:02.636Z,61.30
2022-09-12T07:09:02.653Z,64.20
2022-09-12T07:10:02.609Z,69.30
2022-09-12T07:11:02.599Z,116.20
2022-09-12T07:12:02.589Z,82.60
2022-09-12T07:13:02.570Z,81.50
2022-09-12T07:14:02.551Z,69.30
2022-09-12T07:15:02.538Z,57.60
2022-09-12T07:16:02.524Z,69.30
2022-09-12T07:17:02.550Z,54.50
2022-09-12T07:18:02.507Z,65.00
2022-09-12T07:19:02.508Z,56.60
2022-09-12T07:20:02.470Z,49.70
2022-09-12T07:21:02.458Z,47.30
2022-09-12T07:22:02.452Z,50.30
2022-09-12T07:23:02.432Z,43.90
2022-09-12T07:24:02.422Z,48.20
2022-09-12T07:25:02.403Z,44.60
2022-09-12T07:26:02.393Z,49.90
2022-09-12T07:27:02.384Z,37.30
2022-09-12T07:28:02.364Z,42.90
2022-09-12T07:29:19.060Z,43.20
2022-09-12T07:30:03.337Z,44.60
2022-09-12T07:31:02.344Z,41.10
2022-09-12T07:32:02.315Z,34.70
2022-09-12T07:33:02.295Z,52.50
2022-09-12T07:34:02.275Z,36.70
2022-09-12T07:35:02.277Z,45.30
2022-09-12T07:36:02.255Z,40.60
2022-09-12T07:37:02.250Z,47.70
2022-09-12T07:38:02.234Z,39.30
2022-09-12T07:39:02.246Z,38.20
2022-09-12T07:40:02.284Z,32.00
2022-09-12T07:41:02.187Z,46.00
2022-09-12T07:42:02.187Z,34.70
2022-09-12T07:43:02.159Z,44.00
2022-09-12T07:44:02.163Z,41.70
2022-09-12T07:45:02.149Z,40.30
2022-09-12T07:46:02.171Z,30.20
2022-09-12T07:47:02.126Z,38.70
2022-09-12T07:48:02.095Z,32.90
2022-09-12T07:49:02.079Z,32.70
2022-09-12T07:50:02.071Z,31.70
2022-09-12T07:51:02.065Z,40.50
2022-09-12T07:52:02.042Z,33.30
2022-09-12T07:53:02.021Z,29.40
2022-09-12T07:54:02.015Z,31.50
2022-09-12T07:55:02.004Z,37.60
2022-09-12T07:56:01.999Z,40.60
2022-09-12T07:57:01.979Z,29.50
2022-09-12T07:58:01.972Z,36.70
2022-09-12T07:59:01.943Z,30.80
2022-09-12T08:00:01.935Z,41.70
2022-09-12T08:01:02.000Z,37.50
2022-09-12T08:02:01.969Z,30.40
2022-09-12T08:03:01.889Z,32.60
2022-09-12T08:04:01.884Z,36.50
2022-09-12T08:05:01.866Z,33.80
2022-09-12T08:06:01.866Z,30.40
2022-09-12T08:07:01.845Z,42.80
2022-09-12T08:08:01.836Z,34.60
2022-09-12T08:09:01.815Z,32.60
2022-09-12T08:10:01.797Z,34.90
2022-09-12T08:11:01.797Z,33.90
2022-09-12T08:12:01.774Z,44.70
2022-09-12T08:13:01.758Z,36.60
2022-09-12T08:14:01.757Z,32.90
2022-09-12T08:15:01.733Z,39.60
2022-09-12T08:16:01.767Z,30.50
2022-09-12T08:17:01.710Z,35.40
2022-09-12T08:18:01.696Z,30.40
2022-09-12T08:19:01.680Z,34.70
2022-09-12T08:20:01.672Z,29.10
2022-09-12T08:21:01.660Z,29.00
2022-09-12T08:22:01.638Z,28.10
2022-09-12T08:23:01.621Z,28.00
2022-09-12T08:24:01.623Z,27.50
2022-09-12T08:25:01.600Z,32.60
2022-09-12T08:26:05.792Z,27.00
2022-09-12T08:27:01.575Z,32.70
2022-09-12T08:28:01.574Z,27.40
2022-09-12T08:29:01.543Z,45.90
2022-09-12T08:30:01.534Z,28.00
2022-09-12T08:31:01.561Z,36.20
2022-09-12T08:32:01.507Z,26.70
2022-09-12T08:33:01.494Z,26.50
2022-09-12T08:34:01.486Z,27.00
2022-09-12T08:35:01.466Z,23.40
2022-09-12T08:36:01.467Z,26.60
2022-09-12T08:37:01.436Z,26.30
2022-09-12T08:38:01.430Z,25.00
2022-09-12T08:39:01.426Z,32.50
2022-09-12T08:40:01.437Z,26.10
2022-09-12T08:41:01.394Z,25.30
2022-09-12T08:42:01.416Z,24.50
2022-09-12T08:43:01.359Z,24.10
2022-09-12T08:44:01.352Z,26.30
2022-09-12T08:45:01.338Z,27.40
2022-09-12T08:46:01.405Z,22.20
2022-09-12T08:47:01.311Z,20.50
2022-09-12T08:48:01.300Z,23.10
2022-09-12T08:49:01.280Z,20.20
2022-09-12T08:50:02.229Z,22.30
2022-09-12T08:51:01.261Z,21.40
2022-09-12T08:52:01.241Z,21.50
2022-09-12T08:53:01.231Z,22.30
2022-09-12T08:54:01.215Z,19.10
2022-09-12T08:55:01.205Z,21.40
2022-09-12T08:56:01.193Z,18.90
2022-09-12T08:57:01.173Z,18.70
2022-09-12T08:58:01.164Z,20.50
2022-09-12T08:59:01.143Z,20.80
2022-09-12T09:00:01.141Z,20.80
2022-09-12T09:01:01.114Z,22.60
2022-09-12T09:02:01.203Z,19.20
2022-09-12T09:03:01.094Z,19.10
2022-09-12T09:04:01.083Z,19.50
2022-09-12T09:05:01.077Z,19.00
2022-09-12T09:06:01.057Z,18.10
2022-09-12T09:07:01.037Z,19.70
2022-09-12T09:08:01.036Z,18.60
2022-09-12T09:09:01.015Z,17.90
2022-09-12T09:10:01.018Z,18.40
2022-09-12T09:11:00.998Z,23.10
2022-09-12T09:12:00.979Z,18.50
2022-09-12T09:13:00.960Z,17.50
2022-09-12T09:14:04.882Z,17.80
2022-09-12T09:15:00.942Z,17.20
2022-09-12T09:16:00.987Z,17.30
2022-09-12T09:17:00.910Z,16.50
2022-09-12T09:18:00.891Z,16.90
2022-09-12T09:19:00.880Z,18.80
2022-09-12T09:20:00.893Z,16.50
2022-09-12T09:21:00.851Z,16.30
2022-09-12T09:22:00.842Z,18.00
2022-09-12T09:23:00.903Z,16.80
2022-09-12T09:24:00.822Z,19.70
2022-09-12T09:25:00.812Z,24.60
2022-09-12T09:26:00.809Z,24.90
2022-09-12T09:27:00.784Z,18.60
2022-09-12T09:28:00.778Z,20.50
2022-09-12T09:29:00.744Z,16.70
2022-09-12T09:30:00.776Z,15.20
2022-09-12T09:31:00.802Z,17.20
2022-09-12T09:32:00.724Z,12.90
2022-09-12T09:33:00.695Z,11.80
2022-09-12T09:34:00.686Z,11.60
2022-09-12T09:35:00.677Z,12.00
2022-09-12T09:36:00.657Z,12.70
2022-09-12T09:37:00.637Z,14.10
2022-09-12T09:38:00.635Z,14.60
2022-09-12T09:39:00.619Z,15.00
2022-09-12T09:40:00.683Z,19.50
2022-09-12T09:41:00.595Z,10.80
2022-09-12T09:42:00.576Z,12.70
2022-09-12T09:43:00.559Z,26.80
2022-09-12T09:44:00.643Z,12.00
2022-09-12T09:45:00.530Z,12.80
2022-09-12T09:46:00.670Z,12.50
2022-09-12T09:47:00.511Z,17.10
2022-09-12T09:48:00.501Z,10.60
2022-09-12T09:49:01.952Z,10.60
2022-09-12T09:50:00.492Z,9.40
2022-09-12T09:51:00.466Z,12.70
2022-09-12T09:52:00.700Z,8.90
2022-09-12T09:53:00.423Z,8.60
2022-09-12T09:54:00.429Z,7.80
2022-09-12T09:55:00.403Z,8.00
2022-09-12T09:56:00.394Z,9.10
2022-09-12T09:57:00.379Z,12.20
2022-09-12T09:58:00.365Z,7.60
2022-09-12T09:59:00.355Z,7.70
2022-09-12T10:00:00.365Z,7.60
2022-09-12T10:01:00.347Z,5.90
2022-09-12T10:02:00.330Z,7.20
2022-09-12T10:03:00.379Z,5.60
2022-09-12T10:04:00.296Z,7.70
2022-09-12T10:05:00.267Z,7.20
2022-09-12T10:06:00.257Z,7.10
2022-09-12T10:07:00.247Z,5.40
2022-09-12T10:08:00.238Z,5.70
2022-09-12T10:09:00.229Z,6.10
2022-09-12T10:10:01.172Z,5.50
2022-09-12T10:11:00.200Z,8.40
2022-09-12T10:12:00.180Z,8.50
2022-09-12T10:13:00.162Z,8.90
2022-09-12T10:14:00.162Z,14.70
2022-09-12T10:15:00.145Z,6.60
2022-09-12T10:16:00.188Z,9.60
2022-09-12T10:17:00.113Z,11.00
2022-09-12T10:18:00.103Z,13.50
2022-09-12T10:19:00.100Z,14.70
2022-09-12T10:20:19.795Z,16.60
2022-09-12T10:21:01.067Z,8.60
2022-09-12T10:22:00.115Z,8.60
2022-09-12T10:23:00.028Z,8.60
2022-09-12T10:24:00.031Z,7.80
2022-09-12T10:25:00.008Z,6.90
2022-09-12T10:25:59.995Z,7.90
2022-09-12T10:26:59.976Z,7.00
2022-09-12T10:27:59.965Z,6.50
2022-09-12T10:28:59.966Z,6.50
2022-09-12T10:29:59.942Z,6.10
2022-09-12T10:31:00.035Z,6.40
2022-09-12T10:31:59.907Z,7.10
2022-09-12T10:32:59.895Z,6.20
2022-09-12T10:33:59.887Z,6.70
2022-09-12T10:34:59.870Z,6.00
2022-09-12T10:35:59.868Z,6.10
2022-09-12T10:36:59.868Z,6.10
2022-09-12T10:37:59.840Z,6.30
2022-09-12T10:38:59.890Z,7.00
2022-09-12T10:39:59.861Z,5.40
2022-09-12T10:40:59.800Z,4.20
2022-09-12T10:41:59.783Z,4.60
2022-09-12T10:42:59.791Z,5.00
2022-09-12T10:43:59.760Z,4.60
2022-09-12T10:44:59.742Z,5.50
2022-09-12T10:45:59.770Z,4.80
2022-09-12T10:46:59.717Z,11.70
2022-09-12T10:48:02.099Z,4.90
2022-09-12T10:48:59.685Z,4.60
2022-09-12T10:49:59.676Z,5.10
2022-09-12T10:50:59.656Z,4.80
2022-09-12T10:51:59.666Z,8.20
2022-09-12T10:52:59.637Z,4.40
2022-09-12T10:53:59.623Z,3.20
2022-09-12T10:54:59.606Z,3.20
2022-09-12T10:55:59.595Z,3.50
2022-09-12T10:56:59.578Z,2.70
2022-09-12T10:57:59.575Z,2.80
2022-09-12T10:58:59.548Z,3.10
2022-09-12T10:59:59.539Z,3.40
2022-09-12T11:00:59.529Z,3.20
2022-09-12T11:01:59.516Z,3.50
2022-09-12T11:02:59.537Z,5.90
2022-09-12T11:03:59.491Z,6.00
2022-09-12T11:04:59.470Z,4.00
2022-09-12T11:05:59.461Z,4.70
2022-09-12T11:06:59.455Z,6.50
2022-09-12T11:07:59.449Z,3.40
2022-09-12T11:08:59.444Z,4.00
2022-09-12T11:10:00.372Z,3.30
2022-09-12T11:10:59.405Z,4.10
2022-09-12T11:11:59.393Z,3.70
2022-09-12T11:12:59.373Z,2.90
2022-09-12T11:14:00.334Z,3.60
2022-09-12T11:14:59.334Z,3.30
2022-09-12T11:15:59.415Z,3.50
2022-09-12T11:16:59.340Z,3.30
2022-09-12T11:17:59.326Z,6.30
2022-09-12T11:18:59.288Z,4.20
2022-09-12T11:19:59.274Z,3.10
2022-09-12T11:20:59.259Z,2.90
2022-09-12T11:21:59.247Z,2.60
2022-09-12T11:22:59.237Z,5.50
2022-09-12T11:23:59.228Z,2.60
2022-09-12T11:24:59.208Z,6.10
2022-09-12T11:25:59.199Z,2.80
2022-09-12T11:26:59.179Z,6.40
2022-09-12T11:27:59.181Z,4.10
2022-09-12T11:28:59.160Z,12.60
2022-09-12T11:29:59.143Z,2.80
2022-09-12T11:30:59.189Z,2.60
2022-09-12T11:31:59.121Z,5.90
2022-09-12T11:32:59.116Z,2.30
2022-09-12T11:33:59.095Z,6.00
2022-09-12T11:34:59.073Z,2.40
2022-09-12T11:35:59.063Z,2.50
2022-09-12T11:36:59.067Z,2.60
2022-09-12T11:37:59.045Z,2.30
2022-09-12T11:38:59.027Z,2.20
2022-09-12T11:39:59.026Z,3.60
2022-09-12T11:40:58.996Z,2.30
2022-09-12T11:41:58.986Z,2.20
2022-09-12T11:42:58.983Z,2.30
2022-09-12T11:43:58.963Z,2.10
2022-09-12T11:44:58.938Z,2.10
2022-09-12T11:45:58.947Z,2.60
2022-09-12T11:46:58.917Z,2.90
2022-09-12T11:47:58.908Z,2.20
2022-09-12T11:48:58.891Z,2.30
2022-09-12T11:49:58.879Z,2.10
2022-09-12T11:50:58.867Z,2.00
2022-09-12T11:51:58.851Z,1.70
2022-09-12T11:52:58.848Z,1.70
2022-09-12T11:53:58.822Z,1.70
2022-09-12T11:54:58.820Z,5.50
2022-09-12T11:55:58.793Z,2.50
2022-09-12T11:56:58.792Z,2.60
2022-09-12T11:57:58.782Z,2.00
2022-09-12T11:58:58.762Z,2.40
2022-09-12T11:59:58.744Z,6.60
2022-09-12T12:00:58.793Z,5.60
2022-09-12T12:01:58.741Z,12.80
2022-09-12T12:02:58.714Z,1.60
2022-09-12T12:03:58.799Z,2.30
2022-09-12T12:04:58.685Z,2.00
2022-09-12T12:05:58.665Z,2.20
2022-09-12T12:06:58.665Z,2.30
2022-09-12T12:07:58.646Z,2.00
2022-09-12T12:08:58.649Z,3.00
2022-09-12T12:09:58.617Z,1.90
2022-09-12T12:10:58.605Z,2.10
2022-09-12T12:11:58.587Z,2.50
2022-09-12T12:12:58.588Z,1.90
2022-09-12T12:13:58.560Z,2.00
2022-09-12T12:14:58.550Z,3.20
2022-09-12T12:15:58.562Z,4.60
2022-09-12T12:16:58.527Z,3.00
2022-09-12T12:17:58.534Z,1.70
2022-09-12T12:18:58.501Z,1.80
2022-09-12T12:20:01.079Z,2.10
2022-09-12T12:20:59.470Z,2.10
2022-09-12T12:21:58.453Z,2.10
2022-09-12T12:22:59.410Z,3.00
2022-09-12T12:23:58.434Z,2.30
2022-09-12T12:24:58.415Z,2.40
2022-09-12T12:25:58.404Z,4.40
2022-09-12T12:26:58.467Z,2.20
2022-09-12T12:27:58.385Z,2.00
2022-09-12T12:28:58.368Z,5.30
2022-09-12T12:29:58.346Z,3.70
2022-09-12T12:30:58.400Z,3.10
2022-09-12T12:31:58.339Z,2.40
2022-09-12T12:32:58.318Z,2.00
2022-09-12T12:33:58.297Z,4.70
2022-09-12T12:34:58.288Z,2.20
2022-09-12T12:35:58.268Z,2.10
2022-09-12T12:36:58.259Z,2.40
2022-09-12T12:37:58.252Z,2.30
2022-09-12T12:38:58.239Z,2.00
2022-09-12T12:39:58.248Z,2.00
2022-09-12T12:40:58.212Z,4.10
2022-09-12T12:41:58.186Z,1.90
2022-09-12T12:42:58.191Z,4.80
2022-09-12T12:43:58.172Z,1.90
2022-09-12T12:44:58.153Z,2.00
2022-09-12T12:45:58.171Z,2.00
2022-09-12T12:46:58.122Z,2.40
2022-09-12T12:47:58.120Z,2.60
2022-09-12T12:48:58.113Z,7.10
2022-09-12T12:49:58.085Z,2.50
2022-09-12T12:50:58.086Z,4.40
2022-09-12T12:51:58.055Z,1.90
2022-09-12T12:52:58.055Z,2.40
2022-09-12T12:53:58.155Z,2.80
2022-09-12T12:54:58.025Z,4.00
2022-09-12T12:55:58.028Z,2.40
2022-09-12T12:56:57.997Z,2.20
2022-09-12T12:57:57.987Z,2.70
2022-09-12T12:58:57.969Z,2.80
2022-09-12T12:59:57.958Z,2.20